sensor_id;sensor_type;location;lat;lon;timestamp;temperature;humidity
9768;DHT22;4923;52.520;13.494;2023-04-08T00:02:37;5.60;1.00
9768;DHT22;4923;52.520;13.494;2023-04-08T00:05:24;5.60;99.90
9768;DHT22;4923;52.520;13.494;2023-04-08T00:08:12;5.60;1.00
9768;DHT22;4923;52.520;13.494;2023-04-08T00:10:59;5.70;99.90
9768;DHT22;4923;52.520;13.494;2023-04-08T00:13:46;5.70;99.90
9768;DHT22;4923;52.520;13.494;2023-04-08T00:16:33;5.60;99.90
9768;DHT22;4923;52.520;13.494;2023-04-08T00:19:20;5.70;1.00
9768;DHT22;4923;52.520;13.494;2023-04-08T00:22:07;5.60;1.00
9768;DHT22;4923;52.520;13.494;2023-04-08T00:24:56;5.60;99.90
9768;DHT22;4923;52.520;13.494;2023-04-08T00:27:43;5.50;99.90
9768;DHT22;4923;52.520;13.494;2023-04-08T00:30:30;5.50;41.20
9768;DHT22;4923;52.520;13.494;2023-04-08T00:33:17;5.50;99.90
9768;DHT22;4923;52.520;13.494;2023-04-08T00:36:04;5.50;99.90
9768;DHT22;4923;52.520;13.494;2023-04-08T00:38:51;5.50;99.90
9768;DHT22;4923;52.520;13.494;2023-04-08T00:41:39;5.50;99.90
9768;DHT22;4923;52.520;13.494;2023-04-08T00:44:26;5.60;99.90
9768;DHT22;4923;52.520;13.494;2023-04-08T00:47:13;5.60;99.90
9768;DHT22;4923;52.520;13.494;2023-04-08T00:50:01;5.50;99.90
9768;DHT22;4923;52.520;13.494;2023-04-08T00:52:48;5.60;99.90
9768;DHT22;4923;52.520;13.494;2023-04-08T00:55:35;5.50;1.00
9768;DHT22;4923;52.520;13.494;2023-04-08T00:58:23;5.60;99.90
9768;DHT22;4923;52.520;13.494;2023-04-08T01:01:14;5.60;1.00
9768;DHT22;4923;52.520;13.494;2023-04-08T01:04:13;5.60;99.90
9768;DHT22;4923;52.520;13.494;2023-04-08T01:07:08;5.60;1.00
9768;DHT22;4923;52.520;13.494;2023-04-08T01:10:02;5.60;1.00
9768;DHT22;4923;52.520;13.494;2023-04-08T01:12:53;5.60;1.00
9768;DHT22;4923;52.520;13.494;2023-04-08T01:15:43;5.60;1.00
9768;DHT22;4923;52.520;13.494;2023-04-08T01:18:32;5.60;1.00
9768;DHT22;4923;52.520;13.494;2023-04-08T01:21:21;5.70;99.90
9768;DHT22;4923;52.520;13.494;2023-04-08T01:24:15;5.60;99.90
9768;DHT22;4923;52.520;13.494;2023-04-08T01:27:06;5.60;1.00
9768;DHT22;4923;52.520;13.494;2023-04-08T01:29:54;5.60;1.00
9768;DHT22;4923;52.520;13.494;2023-04-08T01:32:43;5.70;1.00
9768;DHT22;4923;52.520;13.494;2023-04-08T01:35:31;5.60;99.90
9768;DHT22;4923;52.520;13.494;2023-04-08T01:38:19;5.70;1.00
9768;DHT22;4923;52.520;13.494;2023-04-08T01:41:08;5.70;99.90
9768;DHT22;4923;52.520;13.494;2023-04-08T01:43:57;5.70;99.90
9768;DHT22;4923;52.520;13.494;2023-04-08T01:46:44;5.70;99.90
9768;DHT22;4923;52.520;13.494;2023-04-08T01:49:32;5.80;1.00
9768;DHT22;4923;52.520;13.494;2023-04-08T01:52:20;5.70;1.00
9768;DHT22;4923;52.520;13.494;2023-04-08T01:55:08;5.70;1.00
9768;DHT22;4923;52.520;13.494;2023-04-08T01:57:56;5.70;99.90
9768;DHT22;4923;52.520;13.494;2023-04-08T02:00:46;5.70;1.00
9768;DHT22;4923;52.520;13.494;2023-04-08T02:03:34;5.60;99.90
9768;DHT22;4923;52.520;13.494;2023-04-08T02:06:22;5.60;99.90
9768;DHT22;4923;52.520;13.494;2023-04-08T02:09:09;5.70;99.90
9768;DHT22;4923;52.520;13.494;2023-04-08T02:11:56;5.70;1.00
9768;DHT22;4923;52.520;13.494;2023-04-08T02:14:43;5.70;99.90
9768;DHT22;4923;52.520;13.494;2023-04-08T02:17:35;5.80;1.00
9768;DHT22;4923;52.520;13.494;2023-04-08T02:20:29;5.80;1.00
9768;DHT22;4923;52.520;13.494;2023-04-08T02:23:19;5.70;99.90
9768;DHT22;4923;52.520;13.494;2023-04-08T02:26:08;5.80;1.00
9768;DHT22;4923;52.520;13.494;2023-04-08T02:28:58;5.70;1.00
9768;DHT22;4923;52.520;13.494;2023-04-08T02:31:47;5.70;99.90
9768;DHT22;4923;52.520;13.494;2023-04-08T02:34:37;5.80;1.00
9768;DHT22;4923;52.520;13.494;2023-04-08T02:37:27;5.80;1.00
9768;DHT22;4923;52.520;13.494;2023-04-08T02:40:27;5.80;1.00
9768;DHT22;4923;52.520;13.494;2023-04-08T02:43:14;5.70;99.90
9768;DHT22;4923;52.520;13.494;2023-04-08T02:46:01;5.80;1.00
9768;DHT22;4923;52.520;13.494;2023-04-08T02:48:48;5.70;99.90
9768;DHT22;4923;52.520;13.494;2023-04-08T02:51:37;5.80;12.50
9768;DHT22;4923;52.520;13.494;2023-04-08T02:54:23;5.80;1.00
9768;DHT22;4923;52.520;13.494;2023-04-08T02:57:10;5.80;99.90
9768;DHT22;4923;52.520;13.494;2023-04-08T02:59:57;5.80;1.00
9768;DHT22;4923;52.520;13.494;2023-04-08T03:02:44;5.80;99.90
9768;DHT22;4923;52.520;13.494;2023-04-08T03:05:31;5.80;99.90
9768;DHT22;4923;52.520;13.494;2023-04-08T03:08:19;5.80;1.00
9768;DHT22;4923;52.520;13.494;2023-04-08T03:11:06;5.80;1.00
9768;DHT22;4923;52.520;13.494;2023-04-08T03:13:54;5.70;1.00
9768;DHT22;4923;52.520;13.494;2023-04-08T03:16:41;5.80;1.00
9768;DHT22;4923;52.520;13.494;2023-04-08T03:19:28;5.80;1.00
9768;DHT22;4923;52.520;13.494;2023-04-08T03:22:15;5.70;99.90
9768;DHT22;4923;52.520;13.494;2023-04-08T03:25:04;5.80;99.90
9768;DHT22;4923;52.520;13.494;2023-04-08T03:27:51;5.80;1.00
9768;DHT22;4923;52.520;13.494;2023-04-08T03:30:38;5.70;1.00
9768;DHT22;4923;52.520;13.494;2023-04-08T03:33:25;5.80;99.90
9768;DHT22;4923;52.520;13.494;2023-04-08T03:36:12;5.90;1.00
9768;DHT22;4923;52.520;13.494;2023-04-08T03:38:59;5.90;99.90
9768;DHT22;4923;52.520;13.494;2023-04-08T03:41:47;5.90;99.90
9768;DHT22;4923;52.520;13.494;2023-04-08T03:44:34;5.90;99.90
9768;DHT22;4923;52.520;13.494;2023-04-08T03:47:20;5.90;1.00
9768;DHT22;4923;52.520;13.494;2023-04-08T03:50:08;5.90;99.90
9768;DHT22;4923;52.520;13.494;2023-04-08T03:52:55;5.90;99.90
9768;DHT22;4923;52.520;13.494;2023-04-08T03:55:42;5.90;1.00
9768;DHT22;4923;52.520;13.494;2023-04-08T03:58:30;5.90;1.00
9768;DHT22;4923;52.520;13.494;2023-04-08T04:01:17;5.90;99.90
9768;DHT22;4923;52.520;13.494;2023-04-08T04:04:04;5.90;1.00
9768;DHT22;4923;52.520;13.494;2023-04-08T04:06:51;6.00;1.00
9768;DHT22;4923;52.520;13.494;2023-04-08T04:09:38;5.90;1.00
9768;DHT22;4923;52.520;13.494;2023-04-08T04:12:25;6.00;1.00
9768;DHT22;4923;52.520;13.494;2023-04-08T04:15:13;6.00;99.90
9768;DHT22;4923;52.520;13.494;2023-04-08T04:18:00;5.80;99.90
9768;DHT22;4923;52.520;13.494;2023-04-08T04:20:47;5.80;99.90
9768;DHT22;4923;52.520;13.494;2023-04-08T04:23:34;5.80;1.00
9768;DHT22;4923;52.520;13.494;2023-04-08T04:26:21;5.90;1.00
9768;DHT22;4923;52.520;13.494;2023-04-08T04:29:07;6.00;1.00
9768;DHT22;4923;52.520;13.494;2023-04-08T04:31:56;6.00;1.00
9768;DHT22;4923;52.520;13.494;2023-04-08T04:34:42;6.00;99.90
9768;DHT22;4923;52.520;13.494;2023-04-08T04:37:29;5.90;99.90
9768;DHT22;4923;52.520;13.494;2023-04-08T04:40:16;6.00;99.90
9768;DHT22;4923;52.520;13.494;2023-04-08T04:43:03;6.00;99.90
9768;DHT22;4923;52.520;13.494;2023-04-08T04:45:50;6.00;99.90
9768;DHT22;4923;52.520;13.494;2023-04-08T04:48:38;6.00;1.00
9768;DHT22;4923;52.520;13.494;2023-04-08T04:51:25;6.00;99.90
9768;DHT22;4923;52.520;13.494;2023-04-08T04:54:12;6.10;35.70
9768;DHT22;4923;52.520;13.494;2023-04-08T04:56:59;6.10;99.90
9768;DHT22;4923;52.520;13.494;2023-04-08T04:59:46;6.10;1.00
9768;DHT22;4923;52.520;13.494;2023-04-08T05:02:33;6.10;1.00
9768;DHT22;4923;52.520;13.494;2023-04-08T05:05:21;6.00;1.00
9768;DHT22;4923;52.520;13.494;2023-04-08T05:08:08;6.00;99.90
9768;DHT22;4923;52.520;13.494;2023-04-08T05:10:54;6.00;99.90
9768;DHT22;4923;52.520;13.494;2023-04-08T05:13:41;6.00;99.90
9768;DHT22;4923;52.520;13.494;2023-04-08T05:16:28;6.00;99.90
9768;DHT22;4923;52.520;13.494;2023-04-08T05:19:15;6.10;99.90
9768;DHT22;4923;52.520;13.494;2023-04-08T05:22:03;6.10;99.90
9768;DHT22;4923;52.520;13.494;2023-04-08T05:24:50;6.10;99.90
9768;DHT22;4923;52.520;13.494;2023-04-08T05:27:37;6.10;99.90
9768;DHT22;4923;52.520;13.494;2023-04-08T05:30:25;6.00;1.00
9768;DHT22;4923;52.520;13.494;2023-04-08T05:33:11;6.00;1.00
9768;DHT22;4923;52.520;13.494;2023-04-08T05:35:58;6.10;1.00
9768;DHT22;4923;52.520;13.494;2023-04-08T05:38:46;6.20;99.90
9768;DHT22;4923;52.520;13.494;2023-04-08T05:41:33;6.20;99.90
9768;DHT22;4923;52.520;13.494;2023-04-08T05:44:20;6.10;99.90
9768;DHT22;4923;52.520;13.494;2023-04-08T05:47:07;6.20;99.90
9768;DHT22;4923;52.520;13.494;2023-04-08T05:49:54;6.30;1.00
9768;DHT22;4923;52.520;13.494;2023-04-08T05:52:41;6.30;99.90
9768;DHT22;4923;52.520;13.494;2023-04-08T05:55:30;6.30;99.90
9768;DHT22;4923;52.520;13.494;2023-04-08T05:58:17;6.40;99.90
9768;DHT22;4923;52.520;13.494;2023-04-08T06:01:04;6.40;99.90
9768;DHT22;4923;52.520;13.494;2023-04-08T06:03:52;6.50;99.90
9768;DHT22;4923;52.520;13.494;2023-04-08T06:06:40;6.50;99.90
9768;DHT22;4923;52.520;13.494;2023-04-08T06:09:27;6.60;99.90
9768;DHT22;4923;52.520;13.494;2023-04-08T06:12:15;6.70;1.00
9768;DHT22;4923;52.520;13.494;2023-04-08T06:15:03;6.80;99.90
9768;DHT22;4923;52.520;13.494;2023-04-08T06:17:50;6.70;99.90
9768;DHT22;4923;52.520;13.494;2023-04-08T06:20:36;6.70;1.00
9768;DHT22;4923;52.520;13.494;2023-04-08T06:23:23;6.80;99.90
9768;DHT22;4923;52.520;13.494;2023-04-08T06:26:10;6.90;99.90
9768;DHT22;4923;52.520;13.494;2023-04-08T06:28:59;6.80;99.90
9768;DHT22;4923;52.520;13.494;2023-04-08T06:31:46;6.70;1.00
9768;DHT22;4923;52.520;13.494;2023-04-08T06:34:33;6.80;99.90
9768;DHT22;4923;52.520;13.494;2023-04-08T06:37:20;6.90;1.00
9768;DHT22;4923;52.520;13.494;2023-04-08T06:40:07;6.90;1.00
9768;DHT22;4923;52.520;13.494;2023-04-08T06:42:54;7.10;1.00
9768;DHT22;4923;52.520;13.494;2023-04-08T06:45:43;7.10;1.00
9768;DHT22;4923;52.520;13.494;2023-04-08T06:48:29;7.20;19.60
9768;DHT22;4923;52.520;13.494;2023-04-08T06:51:16;7.20;1.00
9768;DHT22;4923;52.520;13.494;2023-04-08T06:54:03;7.20;1.00
9768;DHT22;4923;52.520;13.494;2023-04-08T06:56:50;7.30;99.90
9768;DHT22;4923;52.520;13.494;2023-04-08T06:59:37;7.30;1.00
9768;DHT22;4923;52.520;13.494;2023-04-08T07:02:25;7.40;99.90
9768;DHT22;4923;52.520;13.494;2023-04-08T07:05:12;7.60;1.00
9768;DHT22;4923;52.520;13.494;2023-04-08T07:07:59;7.40;1.00
9768;DHT22;4923;52.520;13.494;2023-04-08T07:10:46;7.50;1.00
9768;DHT22;4923;52.520;13.494;2023-04-08T07:13:32;7.60;99.90
9768;DHT22;4923;52.520;13.494;2023-04-08T07:16:19;7.70;1.00
9768;DHT22;4923;52.520;13.494;2023-04-08T07:19:07;7.80;99.90
9768;DHT22;4923;52.520;13.494;2023-04-08T07:21:54;7.80;99.90
9768;DHT22;4923;52.520;13.494;2023-04-08T07:24:42;7.90;1.00
9768;DHT22;4923;52.520;13.494;2023-04-08T07:27:34;7.80;99.90
9768;DHT22;4923;52.520;13.494;2023-04-08T07:30:21;7.90;1.00
9768;DHT22;4923;52.520;13.494;2023-04-08T07:33:08;7.90;99.90
9768;DHT22;4923;52.520;13.494;2023-04-08T07:35:56;7.90;13.60
9768;DHT22;4923;52.520;13.494;2023-04-08T07:38:44;8.00;99.90
9768;DHT22;4923;52.520;13.494;2023-04-08T07:41:31;8.10;1.00
9768;DHT22;4923;52.520;13.494;2023-04-08T07:44:18;8.30;1.00
9768;DHT22;4923;52.520;13.494;2023-04-08T07:47:04;8.20;1.00
9768;DHT22;4923;52.520;13.494;2023-04-08T07:49:51;7.90;55.10
9768;DHT22;4923;52.520;13.494;2023-04-08T07:52:40;8.00;99.90
9768;DHT22;4923;52.520;13.494;2023-04-08T07:55:27;8.20;1.00
9768;DHT22;4923;52.520;13.494;2023-04-08T07:58:14;8.30;1.00
9768;DHT22;4923;52.520;13.494;2023-04-08T08:01:01;8.50;99.90
9768;DHT22;4923;52.520;13.494;2023-04-08T08:03:48;8.50;99.90
9768;DHT22;4923;52.520;13.494;2023-04-08T08:06:36;8.80;1.00
9768;DHT22;4923;52.520;13.494;2023-04-08T08:09:24;8.90;1.00
9768;DHT22;4923;52.520;13.494;2023-04-08T08:12:11;8.70;99.90
9768;DHT22;4923;52.520;13.494;2023-04-08T08:14:58;8.70;10.30
9768;DHT22;4923;52.520;13.494;2023-04-08T08:17:45;9.00;1.00
9768;DHT22;4923;52.520;13.494;2023-04-08T08:20:32;9.30;1.00
9768;DHT22;4923;52.520;13.494;2023-04-08T08:23:18;9.50;1.00
9768;DHT22;4923;52.520;13.494;2023-04-08T08:26:08;9.60;1.00
9768;DHT22;4923;52.520;13.494;2023-04-08T08:28:58;9.60;1.00
9768;DHT22;4923;52.520;13.494;2023-04-08T08:31:45;9.80;99.90
9768;DHT22;4923;52.520;13.494;2023-04-08T08:34:33;9.80;99.90
9768;DHT22;4923;52.520;13.494;2023-04-08T08:37:19;9.70;1.00
9768;DHT22;4923;52.520;13.494;2023-04-08T08:40:07;10.20;99.90
9768;DHT22;4923;52.520;13.494;2023-04-08T08:42:56;10.30;1.00
9768;DHT22;4923;52.520;13.494;2023-04-08T08:45:43;10.10;1.00
9768;DHT22;4923;52.520;13.494;2023-04-08T08:48:30;9.90;99.90
9768;DHT22;4923;52.520;13.494;2023-04-08T08:51:18;10.20;77.50
9768;DHT22;4923;52.520;13.494;2023-04-08T08:54:05;10.30;99.90
9768;DHT22;4923;52.520;13.494;2023-04-08T08:56:53;9.80;1.00
9768;DHT22;4923;52.520;13.494;2023-04-08T08:59:41;9.80;1.00
9768;DHT22;4923;52.520;13.494;2023-04-08T09:02:29;9.50;99.90
9768;DHT22;4923;52.520;13.494;2023-04-08T09:05:16;9.20;99.90
9768;DHT22;4923;52.520;13.494;2023-04-08T09:08:03;9.20;1.00
9768;DHT22;4923;52.520;13.494;2023-04-08T09:10:50;9.40;44.10
9768;DHT22;4923;52.520;13.494;2023-04-08T09:13:37;9.60;99.90
9768;DHT22;4923;52.520;13.494;2023-04-08T09:16:26;9.40;99.90
9768;DHT22;4923;52.520;13.494;2023-04-08T09:19:13;9.50;1.00
9768;DHT22;4923;52.520;13.494;2023-04-08T09:22:04;9.60;1.00
9768;DHT22;4923;52.520;13.494;2023-04-08T09:24:52;9.60;99.90
9768;DHT22;4923;52.520;13.494;2023-04-08T09:27:38;9.40;99.90
9768;DHT22;4923;52.520;13.494;2023-04-08T09:30:26;9.50;1.00
9768;DHT22;4923;52.520;13.494;2023-04-08T09:33:15;9.70;99.90
9768;DHT22;4923;52.520;13.494;2023-04-08T09:36:02;9.80;99.90
9768;DHT22;4923;52.520;13.494;2023-04-08T09:38:49;10.20;1.00
9768;DHT22;4923;52.520;13.494;2023-04-08T09:41:38;10.10;78.60
9768;DHT22;4923;52.520;13.494;2023-04-08T09:44:28;10.30;1.00
9768;DHT22;4923;52.520;13.494;2023-04-08T09:47:18;10.50;22.90
9768;DHT22;4923;52.520;13.494;2023-04-08T09:50:08;10.30;1.00
9768;DHT22;4923;52.520;13.494;2023-04-08T09:53:00;10.40;1.00
9768;DHT22;4923;52.520;13.494;2023-04-08T09:55:50;10.40;99.90
9768;DHT22;4923;52.520;13.494;2023-04-08T09:58:42;10.60;99.90
9768;DHT22;4923;52.520;13.494;2023-04-08T10:01:36;10.60;1.00
9768;DHT22;4923;52.520;13.494;2023-04-08T10:04:25;10.80;1.00
9768;DHT22;4923;52.520;13.494;2023-04-08T10:07:15;10.80;1.00
9768;DHT22;4923;52.520;13.494;2023-04-08T10:10:02;11.10;1.00
9768;DHT22;4923;52.520;13.494;2023-04-08T10:12:49;11.40;1.00
9768;DHT22;4923;52.520;13.494;2023-04-08T10:15:37;11.40;1.00
9768;DHT22;4923;52.520;13.494;2023-04-08T10:18:31;11.50;1.00
9768;DHT22;4923;52.520;13.494;2023-04-08T10:21:35;11.50;1.00
9768;DHT22;4923;52.520;13.494;2023-04-08T10:24:24;11.10;1.00
9768;DHT22;4923;52.520;13.494;2023-04-08T10:27:37;11.50;1.00
9768;DHT22;4923;52.520;13.494;2023-04-08T10:30:41;11.50;1.00
9768;DHT22;4923;52.520;13.494;2023-04-08T10:33:32;11.70;1.00
9768;DHT22;4923;52.520;13.494;2023-04-08T10:36:20;11.60;1.00
9768;DHT22;4923;52.520;13.494;2023-04-08T10:39:07;11.90;1.00
9768;DHT22;4923;52.520;13.494;2023-04-08T10:41:55;12.20;1.00
9768;DHT22;4923;52.520;13.494;2023-04-08T10:44:44;12.30;1.00
9768;DHT22;4923;52.520;13.494;2023-04-08T10:47:31;12.20;99.90
9768;DHT22;4923;52.520;13.494;2023-04-08T10:50:19;12.00;99.90
9768;DHT22;4923;52.520;13.494;2023-04-08T10:53:09;12.20;99.90
9768;DHT22;4923;52.520;13.494;2023-04-08T10:56:03;12.30;99.90
9768;DHT22;4923;52.520;13.494;2023-04-08T10:58:54;12.30;99.90
9768;DHT22;4923;52.520;13.494;2023-04-08T11:01:41;12.40;99.90
9768;DHT22;4923;52.520;13.494;2023-04-08T11:04:29;12.10;99.90
9768;DHT22;4923;52.520;13.494;2023-04-08T11:07:19;12.00;99.90
9768;DHT22;4923;52.520;13.494;2023-04-08T11:10:07;12.00;99.90
9768;DHT22;4923;52.520;13.494;2023-04-08T11:12:54;12.00;99.90
9768;DHT22;4923;52.520;13.494;2023-04-08T11:15:43;12.00;99.90
9768;DHT22;4923;52.520;13.494;2023-04-08T11:18:30;11.90;99.90
9768;DHT22;4923;52.520;13.494;2023-04-08T11:21:17;12.00;99.90
9768;DHT22;4923;52.520;13.494;2023-04-08T11:24:11;12.30;99.90
9768;DHT22;4923;52.520;13.494;2023-04-08T11:26:59;12.40;99.90
9768;DHT22;4923;52.520;13.494;2023-04-08T11:29:47;12.20;99.90
9768;DHT22;4923;52.520;13.494;2023-04-08T11:32:37;12.30;99.90
9768;DHT22;4923;52.520;13.494;2023-04-08T11:35:27;12.70;99.90
9768;DHT22;4923;52.520;13.494;2023-04-08T11:38:14;12.90;99.90
9768;DHT22;4923;52.520;13.494;2023-04-08T11:41:01;12.80;99.90
9768;DHT22;4923;52.520;13.494;2023-04-08T11:43:55;12.90;99.90
9768;DHT22;4923;52.520;13.494;2023-04-08T11:46:51;12.80;99.90
9768;DHT22;4923;52.520;13.494;2023-04-08T11:49:44;12.90;99.90
9768;DHT22;4923;52.520;13.494;2023-04-08T11:52:45;13.10;99.90
9768;DHT22;4923;52.520;13.494;2023-04-08T11:55:33;13.00;96.40
9768;DHT22;4923;52.520;13.494;2023-04-08T11:58:20;12.70;81.80
9768;DHT22;4923;52.520;13.494;2023-04-08T12:01:06;12.50;96.90
9768;DHT22;4923;52.520;13.494;2023-04-08T12:03:58;12.50;69.30
9768;DHT22;4923;52.520;13.494;2023-04-08T12:06:47;12.50;79.80
9768;DHT22;4923;52.520;13.494;2023-04-08T12:09:34;12.50;61.70
9768;DHT22;4923;52.520;13.494;2023-04-08T12:12:21;12.30;74.40
9768;DHT22;4923;52.520;13.494;2023-04-08T12:15:08;12.50;68.10
9768;DHT22;4923;52.520;13.494;2023-04-08T12:17:55;12.60;55.70
9768;DHT22;4923;52.520;13.494;2023-04-08T12:20:42;12.60;59.00
9768;DHT22;4923;52.520;13.494;2023-04-08T12:23:30;12.90;35.60
9768;DHT22;4923;52.520;13.494;2023-04-08T12:26:17;13.10;20.30
9768;DHT22;4923;52.520;13.494;2023-04-08T12:29:05;13.10;1.00
9768;DHT22;4923;52.520;13.494;2023-04-08T12:31:54;13.00;1.00
9768;DHT22;4923;52.520;13.494;2023-04-08T12:34:40;12.90;1.00
9768;DHT22;4923;52.520;13.494;2023-04-08T12:37:27;13.00;1.00
9768;DHT22;4923;52.520;13.494;2023-04-08T12:40:16;13.10;1.00
9768;DHT22;4923;52.520;13.494;2023-04-08T12:43:03;13.20;1.00
9768;DHT22;4923;52.520;13.494;2023-04-08T12:45:50;13.30;1.00
9768;DHT22;4923;52.520;13.494;2023-04-08T12:48:37;13.30;1.00
9768;DHT22;4923;52.520;13.494;2023-04-08T12:51:24;13.30;1.00
9768;DHT22;4923;52.520;13.494;2023-04-08T12:54:11;13.20;1.00
9768;DHT22;4923;52.520;13.494;2023-04-08T12:57:07;13.40;1.00
9768;DHT22;4923;52.520;13.494;2023-04-08T12:59:54;13.50;1.00
9768;DHT22;4923;52.520;13.494;2023-04-08T13:02:41;13.70;1.00
9768;DHT22;4923;52.520;13.494;2023-04-08T13:05:28;13.70;1.00
9768;DHT22;4923;52.520;13.494;2023-04-08T13:08:15;13.40;1.00
9768;DHT22;4923;52.520;13.494;2023-04-08T13:11:02;13.10;1.00
9768;DHT22;4923;52.520;13.494;2023-04-08T13:13:50;12.70;1.00
9768;DHT22;4923;52.520;13.494;2023-04-08T13:16:37;12.50;1.00
9768;DHT22;4923;52.520;13.494;2023-04-08T13:19:24;12.30;1.00
9768;DHT22;4923;52.520;13.494;2023-04-08T13:22:11;12.50;1.00
9768;DHT22;4923;52.520;13.494;2023-04-08T13:24:58;12.70;1.00
9768;DHT22;4923;52.520;13.494;2023-04-08T13:27:46;13.20;1.00
9768;DHT22;4923;52.520;13.494;2023-04-08T13:30:34;13.40;1.00
9768;DHT22;4923;52.520;13.494;2023-04-08T13:33:21;13.80;1.00
9768;DHT22;4923;52.520;13.494;2023-04-08T13:36:08;14.00;1.00
9768;DHT22;4923;52.520;13.494;2023-04-08T13:38:55;13.50;1.00
9768;DHT22;4923;52.520;13.494;2023-04-08T13:41:42;13.10;1.00
9768;DHT22;4923;52.520;13.494;2023-04-08T13:44:28;12.90;1.00
9768;DHT22;4923;52.520;13.494;2023-04-08T13:47:19;12.70;1.00
9768;DHT22;4923;52.520;13.494;2023-04-08T13:50:07;12.90;1.00
9768;DHT22;4923;52.520;13.494;2023-04-08T13:52:54;12.90;1.00
9768;DHT22;4923;52.520;13.494;2023-04-08T13:55:41;13.10;1.00
9768;DHT22;4923;52.520;13.494;2023-04-08T13:58:28;13.10;1.00
9768;DHT22;4923;52.520;13.494;2023-04-08T14:01:16;13.30;1.00
9768;DHT22;4923;52.520;13.494;2023-04-08T14:04:04;13.40;1.00
9768;DHT22;4923;52.520;13.494;2023-04-08T14:06:51;13.70;1.00
9768;DHT22;4923;52.520;13.494;2023-04-08T14:09:38;14.00;1.00
9768;DHT22;4923;52.520;13.494;2023-04-08T14:12:25;14.40;1.00
9768;DHT22;4923;52.520;13.494;2023-04-08T14:15:11;14.10;1.00
9768;DHT22;4923;52.520;13.494;2023-04-08T14:17:58;13.90;1.00
9768;DHT22;4923;52.520;13.494;2023-04-08T14:20:47;14.00;1.00
9768;DHT22;4923;52.520;13.494;2023-04-08T14:23:34;14.10;1.00
9768;DHT22;4923;52.520;13.494;2023-04-08T14:26:21;13.90;1.00
9768;DHT22;4923;52.520;13.494;2023-04-08T14:29:07;13.40;1.00
9768;DHT22;4923;52.520;13.494;2023-04-08T14:31:54;13.10;1.00
9768;DHT22;4923;52.520;13.494;2023-04-08T14:34:41;13.30;1.00
9768;DHT22;4923;52.520;13.494;2023-04-08T14:37:30;13.70;1.00
9768;DHT22;4923;52.520;13.494;2023-04-08T14:40:19;14.00;1.00
9768;DHT22;4923;52.520;13.494;2023-04-08T14:43:06;13.90;1.00
9768;DHT22;4923;52.520;13.494;2023-04-08T14:45:53;13.60;1.00
9768;DHT22;4923;52.520;13.494;2023-04-08T14:48:40;13.50;1.00
9768;DHT22;4923;52.520;13.494;2023-04-08T14:51:26;13.60;1.00
9768;DHT22;4923;52.520;13.494;2023-04-08T14:54:16;13.80;1.00
9768;DHT22;4923;52.520;13.494;2023-04-08T14:57:03;13.80;1.00
9768;DHT22;4923;52.520;13.494;2023-04-08T14:59:50;14.00;1.00
9768;DHT22;4923;52.520;13.494;2023-04-08T15:02:38;14.20;1.00
9768;DHT22;4923;52.520;13.494;2023-04-08T15:05:26;14.20;1.00
9768;DHT22;4923;52.520;13.494;2023-04-08T15:08:13;14.10;1.00
9768;DHT22;4923;52.520;13.494;2023-04-08T15:11:01;14.20;1.00
9768;DHT22;4923;52.520;13.494;2023-04-08T15:13:48;14.30;1.00
9768;DHT22;4923;52.520;13.494;2023-04-08T15:16:35;14.10;1.00
9768;DHT22;4923;52.520;13.494;2023-04-08T15:19:22;13.60;1.00
9768;DHT22;4923;52.520;13.494;2023-04-08T15:22:09;13.60;1.00
9768;DHT22;4923;52.520;13.494;2023-04-08T15:24:56;13.50;1.00
9768;DHT22;4923;52.520;13.494;2023-04-08T15:27:44;13.40;1.00
9768;DHT22;4923;52.520;13.494;2023-04-08T15:30:31;13.40;1.00
9768;DHT22;4923;52.520;13.494;2023-04-08T15:33:20;13.60;1.00
9768;DHT22;4923;52.520;13.494;2023-04-08T15:36:07;13.80;1.00
9768;DHT22;4923;52.520;13.494;2023-04-08T15:38:54;14.00;1.00
9768;DHT22;4923;52.520;13.494;2023-04-08T15:41:40;14.10;1.00
9768;DHT22;4923;52.520;13.494;2023-04-08T15:44:31;14.10;1.00
9768;DHT22;4923;52.520;13.494;2023-04-08T15:47:18;14.00;1.00
9768;DHT22;4923;52.520;13.494;2023-04-08T15:50:05;14.00;1.00
9768;DHT22;4923;52.520;13.494;2023-04-08T15:52:52;14.00;1.00
9768;DHT22;4923;52.520;13.494;2023-04-08T15:55:40;13.90;1.00
9768;DHT22;4923;52.520;13.494;2023-04-08T15:58:27;13.80;1.00
9768;DHT22;4923;52.520;13.494;2023-04-08T16:01:15;13.90;1.00
9768;DHT22;4923;52.520;13.494;2023-04-08T16:04:03;13.90;1.00
9768;DHT22;4923;52.520;13.494;2023-04-08T16:06:50;13.90;1.00
9768;DHT22;4923;52.520;13.494;2023-04-08T16:09:37;13.80;1.00
9768;DHT22;4923;52.520;13.494;2023-04-08T16:12:24;14.00;1.00
9768;DHT22;4923;52.520;13.494;2023-04-08T16:15:11;14.10;1.00
9768;DHT22;4923;52.520;13.494;2023-04-08T16:18:00;14.10;1.00
9768;DHT22;4923;52.520;13.494;2023-04-08T16:20:47;14.20;1.00
9768;DHT22;4923;52.520;13.494;2023-04-08T16:23:34;14.20;1.00
9768;DHT22;4923;52.520;13.494;2023-04-08T16:26:22;14.10;1.00
9768;DHT22;4923;52.520;13.494;2023-04-08T16:29:09;14.00;1.00
9768;DHT22;4923;52.520;13.494;2023-04-08T16:31:56;14.00;1.00
9768;DHT22;4923;52.520;13.494;2023-04-08T16:34:44;13.90;1.00
9768;DHT22;4923;52.520;13.494;2023-04-08T16:37:31;13.90;1.00
9768;DHT22;4923;52.520;13.494;2023-04-08T16:40:18;13.80;1.00
9768;DHT22;4923;52.520;13.494;2023-04-08T16:43:05;13.80;1.00
9768;DHT22;4923;52.520;13.494;2023-04-08T16:45:52;13.80;1.00
9768;DHT22;4923;52.520;13.494;2023-04-08T16:48:39;13.80;1.00
9768;DHT22;4923;52.520;13.494;2023-04-08T16:51:29;13.70;1.00
9768;DHT22;4923;52.520;13.494;2023-04-08T16:54:16;13.60;1.00
9768;DHT22;4923;52.520;13.494;2023-04-08T16:57:03;13.50;1.00
9768;DHT22;4923;52.520;13.494;2023-04-08T16:59:50;13.30;1.00
9768;DHT22;4923;52.520;13.494;2023-04-08T17:02:37;13.00;1.00
9768;DHT22;4923;52.520;13.494;2023-04-08T17:05:25;12.80;1.00
9768;DHT22;4923;52.520;13.494;2023-04-08T17:08:13;12.30;1.00
9768;DHT22;4923;52.520;13.494;2023-04-08T17:11:05;11.90;1.00
9768;DHT22;4923;52.520;13.494;2023-04-08T17:13:51;11.80;1.00
9768;DHT22;4923;52.520;13.494;2023-04-08T17:16:38;11.60;1.00
9768;DHT22;4923;52.520;13.494;2023-04-08T17:19:25;11.30;1.00
9768;DHT22;4923;52.520;13.494;2023-04-08T17:22:12;11.00;1.00
9768;DHT22;4923;52.520;13.494;2023-04-08T17:25:01;10.80;1.00
9768;DHT22;4923;52.520;13.494;2023-04-08T17:27:47;10.60;1.00
9768;DHT22;4923;52.520;13.494;2023-04-08T17:30:34;10.30;1.00
9768;DHT22;4923;52.520;13.494;2023-04-08T17:33:22;10.20;1.00
9768;DHT22;4923;52.520;13.494;2023-04-08T17:36:09;10.10;16.20
9768;DHT22;4923;52.520;13.494;2023-04-08T17:38:56;9.90;43.40
9768;DHT22;4923;52.520;13.494;2023-04-08T17:41:44;9.80;68.50
9768;DHT22;4923;52.520;13.494;2023-04-08T17:44:31;9.70;93.40
9768;DHT22;4923;52.520;13.494;2023-04-08T17:47:18;9.60;99.90
9768;DHT22;4923;52.520;13.494;2023-04-08T17:50:07;9.30;99.90
9768;DHT22;4923;52.520;13.494;2023-04-08T17:52:54;9.20;99.90
9768;DHT22;4923;52.520;13.494;2023-04-08T17:55:41;9.00;99.90
9768;DHT22;4923;52.520;13.494;2023-04-08T17:58:29;9.00;99.90
9768;DHT22;4923;52.520;13.494;2023-04-08T18:01:17;8.80;99.90
9768;DHT22;4923;52.520;13.494;2023-04-08T18:04:04;8.70;99.90
9768;DHT22;4923;52.520;13.494;2023-04-08T18:06:52;8.70;99.90
9768;DHT22;4923;52.520;13.494;2023-04-08T18:09:39;8.50;99.90
9768;DHT22;4923;52.520;13.494;2023-04-08T18:12:26;8.50;99.90
9768;DHT22;4923;52.520;13.494;2023-04-08T18:15:15;8.40;99.90
9768;DHT22;4923;52.520;13.494;2023-04-08T18:18:02;8.30;99.90
9768;DHT22;4923;52.520;13.494;2023-04-08T18:20:49;8.30;99.90